createdAt,value
2024-05-09T00:00:36.530Z,7.57
2024-05-09T00:03:08.020Z,6.68
2024-05-09T00:05:36.354Z,7.75
2024-05-09T00:08:04.291Z,7.30
2024-05-09T00:10:36.496Z,7.65
2024-05-09T00:13:06.768Z,7.53
2024-05-09T00:15:34.728Z,6.22
2024-05-09T00:18:03.001Z,7.03
2024-05-09T00:20:37.548Z,6.90
2024-05-09T00:23:12.405Z,6.57
2024-05-09T00:25:42.668Z,6.88
2024-05-09T00:28:11.510Z,6.78
2024-05-09T00:30:38.578Z,8.40
2024-05-09T00:33:06.961Z,6.13
2024-05-09T00:35:35.623Z,6.00
2024-05-09T00:38:03.094Z,6.57
2024-05-09T00:40:39.848Z,6.55
2024-05-09T00:43:14.310Z,7.32
2024-05-09T00:45:42.310Z,6.22
2024-05-09T00:48:13.298Z,5.10
2024-05-09T00:50:43.546Z,6.00
2024-05-09T00:53:12.791Z,5.57
2024-05-09T00:55:40.792Z,5.45
2024-05-09T00:58:10.630Z,5.97
2024-05-09T01:00:40.337Z,4.75
2024-05-09T01:03:10.887Z,6.22
2024-05-09T01:05:40.242Z,5.47
2024-05-09T01:08:08.151Z,6.13
2024-05-09T01:10:36.508Z,7.18
2024-05-09T01:13:07.438Z,8.75
2024-05-09T01:15:35.772Z,6.13
2024-05-09T01:18:13.670Z,5.55
2024-05-09T01:20:44.017Z,9.55
2024-05-09T01:23:14.514Z,4.88
2024-05-09T01:25:43.583Z,6.47
2024-05-09T01:28:10.963Z,5.28
2024-05-09T01:30:38.673Z,7.10
2024-05-09T01:33:08.132Z,4.82
2024-05-09T01:35:37.220Z,5.60
2024-05-09T01:38:04.768Z,5.05
2024-05-09T01:40:37.625Z,5.38
2024-05-09T01:43:11.370Z,5.28
2024-05-09T01:45:42.404Z,5.70
2024-05-09T01:48:10.776Z,5.68
2024-05-09T01:50:41.557Z,6.63
2024-05-09T01:53:11.603Z,7.57
2024-05-09T01:55:38.913Z,5.20
2024-05-09T01:58:06.294Z,6.78
2024-05-09T02:00:39.229Z,5.72
2024-05-09T02:03:15.928Z,6.35
2024-05-09T02:05:46.751Z,5.40
2024-05-09T02:08:17.886Z,6.53
2024-05-09T02:10:46.368Z,6.47
2024-05-09T02:13:14.251Z,5.80
2024-05-09T02:15:41.557Z,5.47
2024-05-09T02:18:09.087Z,5.38
2024-05-09T02:20:38.975Z,5.78
2024-05-09T02:23:06.749Z,5.20
2024-05-09T02:25:34.205Z,6.28
2024-05-09T02:28:01.624Z,5.05
2024-05-09T02:32:58.617Z,7.15
2024-05-09T02:35:26.867Z,6.25
2024-05-09T02:37:53.933Z,6.80
2024-05-09T02:40:28.909Z,8.07
2024-05-09T02:43:03.027Z,6.75
2024-05-09T02:45:30.280Z,5.68
2024-05-09T02:47:57.575Z,6.38
2024-05-09T02:50:33.150Z,6.57
2024-05-09T02:53:04.801Z,5.55
2024-05-09T02:55:31.820Z,8.30
2024-05-09T02:57:58.774Z,5.30
2024-05-09T03:00:34.583Z,5.75
2024-05-09T03:03:08.495Z,5.57
2024-05-09T03:05:37.297Z,4.93
2024-05-09T03:08:05.057Z,6.05
2024-05-09T03:10:36.186Z,5.13
2024-05-09T03:13:14.829Z,4.38
2024-05-09T03:15:43.969Z,4.28
2024-05-09T03:18:11.619Z,3.50
2024-05-09T03:20:39.782Z,5.20
2024-05-09T03:23:09.160Z,7.68
2024-05-09T03:25:37.559Z,4.03
2024-05-09T03:28:04.830Z,3.80
2024-05-09T03:30:39.865Z,3.53
2024-05-09T03:33:15.696Z,3.45
2024-05-09T03:35:46.419Z,5.53
2024-05-09T03:38:13.726Z,4.15
2024-05-09T03:40:50.772Z,4.82
2024-05-09T03:43:19.123Z,3.97
2024-05-09T03:45:49.586Z,4.25
2024-05-09T03:48:17.024Z,5.85
2024-05-09T03:50:44.485Z,4.88
2024-05-09T03:53:13.483Z,7.35
2024-05-09T03:55:41.084Z,5.63
2024-05-09T03:58:08.604Z,4.93
2024-05-09T04:00:38.996Z,10.05
2024-05-09T04:03:10.169Z,3.17
2024-05-09T04:05:40.868Z,3.80
2024-05-09T04:08:09.474Z,4.90
2024-05-09T04:10:36.670Z,4.60
2024-05-09T04:13:04.353Z,4.32
2024-05-09T04:15:32.000Z,5.57
2024-05-09T04:17:59.435Z,7.68
2024-05-09T04:22:56.697Z,5.80
2024-05-09T04:25:23.679Z,5.70
2024-05-09T04:27:50.630Z,6.15
2024-05-09T04:30:25.737Z,11.32
2024-05-09T04:33:01.038Z,7.53
2024-05-09T04:35:28.298Z,7.38
2024-05-09T04:37:55.458Z,8.65
2024-05-09T04:40:28.612Z,7.60
2024-05-09T04:43:00.703Z,8.98
2024-05-09T04:45:27.744Z,9.02
2024-05-09T04:47:55.026Z,7.80
2024-05-09T04:50:30.128Z,9.50
2024-05-09T04:53:03.589Z,9.52
2024-05-09T04:55:30.715Z,9.70
2024-05-09T04:57:57.730Z,10.60
2024-05-09T05:00:32.689Z,11.38
2024-05-09T05:03:10.212Z,13.05
2024-05-09T05:05:44.892Z,11.18
2024-05-09T05:08:17.936Z,8.82
2024-05-09T05:10:47.070Z,7.43
2024-05-09T05:13:22.749Z,8.43
2024-05-09T05:15:53.136Z,11.00
2024-05-09T05:18:21.210Z,10.07
2024-05-09T05:20:48.549Z,9.57
2024-05-09T05:23:19.299Z,10.38
2024-05-09T05:25:48.293Z,8.55
2024-05-09T05:28:19.490Z,12.88
2024-05-09T05:30:47.146Z,8.35
2024-05-09T05:33:15.457Z,10.43
2024-05-09T05:35:43.112Z,8.30
2024-05-09T05:38:11.145Z,9.55
2024-05-09T05:40:39.641Z,9.20
2024-05-09T05:43:09.091Z,9.80
2024-05-09T05:45:36.378Z,8.93
2024-05-09T05:48:05.773Z,10.93
2024-05-09T05:50:36.776Z,8.20
2024-05-09T05:53:10.099Z,9.23
2024-05-09T05:55:38.636Z,8.63
2024-05-09T05:58:08.331Z,7.15
2024-05-09T06:00:38.797Z,7.03
2024-05-09T06:03:08.701Z,6.93
2024-05-09T06:05:36.751Z,7.88
2024-05-09T06:08:04.120Z,5.88
2024-05-09T06:10:37.962Z,6.18
2024-05-09T06:13:08.889Z,5.65
2024-05-09T06:15:35.902Z,5.93
2024-05-09T06:18:06.502Z,5.43
2024-05-09T06:20:36.605Z,5.22
2024-05-09T06:23:09.514Z,4.53
2024-05-09T06:25:37.194Z,5.20
2024-05-09T06:28:04.843Z,5.28
2024-05-09T06:30:38.758Z,5.10
2024-05-09T06:33:10.201Z,4.95
2024-05-09T06:35:38.731Z,6.40
2024-05-09T06:38:09.021Z,4.70
2024-05-09T06:40:39.459Z,5.10
2024-05-09T06:43:19.049Z,5.68
2024-05-09T06:45:52.551Z,5.22
2024-05-09T06:48:20.951Z,4.97
2024-05-09T06:50:48.805Z,4.68
2024-05-09T06:53:16.793Z,6.95
2024-05-09T06:55:43.891Z,7.78
2024-05-09T06:58:10.970Z,8.65
2024-05-09T07:00:40.553Z,9.15
2024-05-09T07:03:11.123Z,10.13
2024-05-09T07:05:39.342Z,7.57
2024-05-09T07:08:06.870Z,7.47
2024-05-09T07:10:37.385Z,9.25
2024-05-09T07:13:15.322Z,9.63
2024-05-09T07:15:43.191Z,7.85
2024-05-09T07:18:19.934Z,8.20
2024-05-09T07:20:51.164Z,6.80
2024-05-09T07:23:18.659Z,9.65
2024-05-09T07:25:46.458Z,7.07
2024-05-09T07:28:18.856Z,6.13
2024-05-09T07:30:46.523Z,8.48
2024-05-09T07:33:18.012Z,8.50
2024-05-09T07:35:45.392Z,8.93
2024-05-09T07:38:12.977Z,7.07
2024-05-09T07:40:41.517Z,6.50
2024-05-09T07:43:11.551Z,5.95
2024-05-09T07:45:48.603Z,6.32
2024-05-09T07:52:38.475Z,7.32
2024-05-09T07:53:46.944Z,5.65
2024-05-09T07:56:17.751Z,8.30
2024-05-09T07:58:45.954Z,5.85
2024-05-09T08:01:13.076Z,15.77
2024-05-09T08:03:40.276Z,7.35
2024-05-09T08:06:07.295Z,8.23
2024-05-09T08:08:34.242Z,8.52
2024-05-09T08:11:02.764Z,15.88
2024-05-09T08:13:29.788Z,8.38
2024-05-09T08:15:56.775Z,8.95
2024-05-09T08:18:23.996Z,9.77
2024-05-09T08:20:52.173Z,9.30
2024-05-09T08:23:19.158Z,11.40
2024-05-09T08:25:46.124Z,13.07
2024-05-09T08:28:13.221Z,12.10
2024-05-09T08:30:40.548Z,9.48
2024-05-09T08:33:08.178Z,9.93
2024-05-09T08:35:35.805Z,9.63
2024-05-09T08:38:04.242Z,11.32
2024-05-09T08:40:35.716Z,12.77
2024-05-09T08:43:09.344Z,10.68
2024-05-09T08:45:38.891Z,11.60
2024-05-09T08:48:08.852Z,10.63
2024-05-09T08:50:40.306Z,10.57
2024-05-09T08:53:08.572Z,8.02
2024-05-09T08:55:40.281Z,9.23
2024-05-09T08:58:13.959Z,9.52
2024-05-09T09:00:43.275Z,9.70
2024-05-09T09:03:16.919Z,9.10
2024-05-09T09:05:53.170Z,10.73
2024-05-09T09:08:21.142Z,9.40
2024-05-09T09:10:48.800Z,10.43
2024-05-09T09:13:16.037Z,10.27
2024-05-09T09:15:49.060Z,10.48
2024-05-09T09:18:17.598Z,10.73
2024-05-09T09:20:45.719Z,8.70
2024-05-09T09:23:12.853Z,8.68
2024-05-09T09:25:40.722Z,10.48
2024-05-09T09:28:08.362Z,9.43
2024-05-09T09:30:39.821Z,14.00
2024-05-09T09:33:09.370Z,8.15
2024-05-09T09:35:38.718Z,9.43
2024-05-09T09:38:07.465Z,9.13
2024-05-09T09:40:45.042Z,7.60
2024-05-09T09:43:21.388Z,8.50
2024-05-09T09:45:52.248Z,8.80
2024-05-09T09:48:21.255Z,8.75
2024-05-09T09:50:51.133Z,12.00
2024-05-09T09:53:18.961Z,11.70
2024-05-09T09:55:46.796Z,9.23
2024-05-09T09:58:16.253Z,8.55
2024-05-09T10:00:43.918Z,7.45
2024-05-09T10:03:11.184Z,7.30
2024-05-09T10:05:39.873Z,7.32
2024-05-09T10:08:09.972Z,7.68
2024-05-09T10:10:37.244Z,8.48
2024-05-09T10:13:05.710Z,9.23
2024-05-09T10:15:52.544Z,8.20
2024-05-09T10:18:28.097Z,8.35
2024-05-09T10:20:57.466Z,6.97
2024-05-09T10:23:36.139Z,6.50
2024-05-09T10:26:06.481Z,6.95
2024-05-09T10:28:37.057Z,8.07
2024-05-09T10:31:09.156Z,8.05
2024-05-09T10:33:40.432Z,8.70
2024-05-09T10:36:12.132Z,8.48
2024-05-09T10:38:41.826Z,7.97
2024-05-09T10:41:08.942Z,8.18
2024-05-09T10:43:39.949Z,9.32
2024-05-09T10:46:08.304Z,7.88
2024-05-09T10:48:36.915Z,10.15
2024-05-09T10:51:04.655Z,8.75
2024-05-09T10:53:32.102Z,6.78
2024-05-09T10:56:02.343Z,6.90
2024-05-09T10:58:29.397Z,7.40
2024-05-09T11:00:57.928Z,8.88
2024-05-09T11:03:25.704Z,10.50
2024-05-09T11:05:53.526Z,7.70
2024-05-09T11:08:22.116Z,9.23
2024-05-09T11:10:54.181Z,8.18
2024-05-09T11:13:31.395Z,8.65
2024-05-09T11:16:02.752Z,8.13
2024-05-09T11:18:35.248Z,7.72
2024-05-09T11:21:12.207Z,9.43
2024-05-09T11:23:39.643Z,6.72
2024-05-09T11:26:07.387Z,6.75
2024-05-09T11:28:36.191Z,6.60
2024-05-09T11:31:08.961Z,5.28
2024-05-09T11:33:38.750Z,5.00
2024-05-09T11:36:07.134Z,6.20
2024-05-09T11:38:34.219Z,5.43
2024-05-09T11:41:02.301Z,5.50
2024-05-09T11:43:29.371Z,5.38
2024-05-09T11:46:00.508Z,5.93
2024-05-09T11:48:28.159Z,6.03
2024-05-09T11:50:56.997Z,5.10
2024-05-09T11:53:24.219Z,6.28
2024-05-09T11:55:51.244Z,9.27
2024-05-09T11:58:19.137Z,4.90
2024-05-09T12:00:47.114Z,5.65
2024-05-09T12:03:14.745Z,4.88
2024-05-09T12:05:42.191Z,7.50
2024-05-09T12:08:09.674Z,7.10
2024-05-09T12:10:37.335Z,4.93
2024-05-09T12:13:06.576Z,5.15
2024-05-09T12:15:37.754Z,6.38
2024-05-09T12:18:06.622Z,4.68
2024-05-09T12:20:37.913Z,6.45
2024-05-09T12:23:09.326Z,5.60
2024-05-09T12:25:38.065Z,7.50
2024-05-09T12:28:05.790Z,5.18
2024-05-09T12:30:37.707Z,5.75
2024-05-09T12:33:12.387Z,4.97
2024-05-09T12:35:43.476Z,6.27
2024-05-09T12:38:13.068Z,7.40
2024-05-09T12:40:40.127Z,10.23
2024-05-09T12:43:08.741Z,8.70
2024-05-09T12:45:37.497Z,9.02
2024-05-09T12:48:07.459Z,10.35
2024-05-09T12:50:35.185Z,6.28
2024-05-09T12:53:03.927Z,6.45
2024-05-09T12:55:40.159Z,5.15
2024-05-09T12:58:15.418Z,7.90
2024-05-09T13:00:42.810Z,7.60
2024-05-09T13:03:10.044Z,4.95
2024-05-09T13:05:37.227Z,4.43
2024-05-09T13:08:04.770Z,5.95
2024-05-09T13:10:33.210Z,4.80
2024-05-09T13:13:02.040Z,5.18
2024-05-09T13:15:34.607Z,7.38
2024-05-09T13:18:03.390Z,5.95
2024-05-09T13:20:34.198Z,6.93
2024-05-09T13:23:04.976Z,8.82
2024-05-09T13:25:34.432Z,6.07
2024-05-09T13:28:02.008Z,5.38
2024-05-09T13:30:37.737Z,5.97
2024-05-09T13:33:08.671Z,5.63
2024-05-09T13:35:36.361Z,6.18
2024-05-09T13:38:04.441Z,10.00
2024-05-09T13:40:34.848Z,4.97
2024-05-09T13:43:04.827Z,4.70
2024-05-09T13:45:32.734Z,4.53
2024-05-09T13:48:00.322Z,4.05
2024-05-09T13:50:33.626Z,4.35
2024-05-09T13:53:05.462Z,6.38
2024-05-09T13:55:33.460Z,10.02
2024-05-09T13:58:01.083Z,4.63
2024-05-09T14:00:41.661Z,4.18
2024-05-09T14:03:14.660Z,7.07
2024-05-09T14:05:42.152Z,6.18
2024-05-09T14:08:09.549Z,3.60
2024-05-09T14:10:43.296Z,4.43
2024-05-09T14:13:10.611Z,4.80
2024-05-09T14:15:37.781Z,4.15
2024-05-09T14:18:05.360Z,4.32
2024-05-09T14:20:32.784Z,6.47
2024-05-09T14:23:00.996Z,5.28
2024-05-09T14:25:35.114Z,7.40
2024-05-09T14:28:04.093Z,4.35
2024-05-09T14:30:36.739Z,6.90
2024-05-09T14:35:34.365Z,3.80
2024-05-09T14:38:01.719Z,4.28
2024-05-09T14:43:02.088Z,6.38
2024-05-09T14:45:29.786Z,5.95
2024-05-09T14:47:57.000Z,4.35
2024-05-09T14:50:32.550Z,4.82
2024-05-09T14:53:03.863Z,3.53
2024-05-09T14:55:31.023Z,3.20
2024-05-09T14:57:58.102Z,5.35
2024-05-09T15:00:29.179Z,2.92
2024-05-09T15:03:00.866Z,3.65
2024-05-09T15:05:27.915Z,2.85
2024-05-09T15:07:57.536Z,3.50
2024-05-09T15:10:33.497Z,2.60
2024-05-09T15:13:03.468Z,3.78
2024-05-09T15:15:30.857Z,3.95
2024-05-09T15:17:58.128Z,2.55
2024-05-09T15:20:33.048Z,8.80
2024-05-09T15:23:03.240Z,2.92
2024-05-09T15:25:30.638Z,3.03
2024-05-09T15:27:57.844Z,6.28
2024-05-09T15:32:54.972Z,3.13
2024-05-09T15:35:22.126Z,4.88
2024-05-09T15:37:49.163Z,4.53
2024-05-09T15:40:26.088Z,6.70
2024-05-09T15:43:02.509Z,2.78
2024-05-09T15:45:29.695Z,2.72
2024-05-09T15:47:57.896Z,4.35
2024-05-09T15:50:35.358Z,4.75
2024-05-09T15:53:07.029Z,2.90
2024-05-09T15:55:35.596Z,5.75
2024-05-09T15:58:04.846Z,2.95
2024-05-09T16:00:38.094Z,2.60
2024-05-09T16:03:13.579Z,3.13
2024-05-09T16:05:48.136Z,3.00
2024-05-09T16:08:16.187Z,3.50
2024-05-09T16:10:45.910Z,4.63
2024-05-09T16:13:14.043Z,4.18
2024-05-09T16:15:41.392Z,3.65
2024-05-09T16:18:08.821Z,4.97
2024-05-09T16:20:40.183Z,3.03
2024-05-09T16:23:09.986Z,3.75
2024-05-09T16:25:37.620Z,6.10
2024-05-09T16:28:08.736Z,5.32
2024-05-09T16:30:40.561Z,6.07
2024-05-09T16:33:08.694Z,3.33
2024-05-09T16:35:37.387Z,3.95
2024-05-09T16:38:05.847Z,4.38
2024-05-09T16:40:38.171Z,4.72
2024-05-09T16:43:09.051Z,8.50
2024-05-09T16:45:37.699Z,3.40
2024-05-09T16:48:06.231Z,4.15
2024-05-09T16:50:35.320Z,4.65
2024-05-09T16:53:04.865Z,3.67
2024-05-09T16:55:32.860Z,5.72
2024-05-09T16:58:00.524Z,3.97
2024-05-09T17:00:38.231Z,4.45
2024-05-09T17:03:11.196Z,4.00
2024-05-09T17:05:39.421Z,4.63
2024-05-09T17:08:07.544Z,4.90
2024-05-09T17:10:36.219Z,3.90
2024-05-09T17:13:05.460Z,6.82
2024-05-09T17:15:34.013Z,4.53
2024-05-09T17:18:01.988Z,6.43
2024-05-09T17:20:33.928Z,5.32
2024-05-09T17:25:31.963Z,3.33
2024-05-09T17:28:07.288Z,4.53
2024-05-09T17:30:37.837Z,4.60
2024-05-09T17:33:08.215Z,7.90
2024-05-09T17:35:36.826Z,8.82
2024-05-09T17:38:05.729Z,6.57
2024-05-09T17:40:36.027Z,5.20
2024-05-09T17:43:06.640Z,6.63
2024-05-09T17:45:37.576Z,3.60
2024-05-09T17:48:05.196Z,5.22
2024-05-09T17:50:35.976Z,3.92
2024-05-09T17:53:05.842Z,6.05
2024-05-09T17:55:33.197Z,3.95
2024-05-09T17:58:00.877Z,3.70
2024-05-09T18:00:37.201Z,3.72
2024-05-09T18:03:08.968Z,4.10
2024-05-09T18:05:37.322Z,4.50
2024-05-09T18:08:08.017Z,6.32
2024-05-09T18:10:38.574Z,4.47
2024-05-09T18:13:11.874Z,5.07
2024-05-09T18:15:39.984Z,4.63
2024-05-09T18:18:07.858Z,5.80
2024-05-09T18:20:42.634Z,4.03
2024-05-09T18:23:14.384Z,3.33
2024-05-09T18:25:42.557Z,3.75
2024-05-09T18:28:09.992Z,4.88
2024-05-09T18:30:37.866Z,5.68
2024-05-09T18:33:07.535Z,3.13
2024-05-09T18:35:36.590Z,4.78
2024-05-09T18:38:04.748Z,4.45
2024-05-09T18:40:35.658Z,3.50
2024-05-09T18:43:06.891Z,4.78
2024-05-09T18:45:36.667Z,6.50
2024-05-09T18:48:08.063Z,5.60
2024-05-09T18:50:39.193Z,6.50
2024-05-09T18:53:10.412Z,6.50
2024-05-09T18:55:38.235Z,10.23
2024-05-09T18:58:05.524Z,7.55
2024-05-09T19:00:36.511Z,7.22
2024-05-09T19:03:09.582Z,5.80
2024-05-09T19:05:39.398Z,4.22
2024-05-09T19:08:07.664Z,6.18
2024-05-09T19:10:36.080Z,5.80
2024-05-09T19:13:08.641Z,4.70
2024-05-09T19:15:39.703Z,4.25
2024-05-09T19:18:08.565Z,5.03
2024-05-09T19:20:36.908Z,4.10
2024-05-09T19:23:06.630Z,5.78
2024-05-09T19:25:35.004Z,4.43
2024-05-09T19:28:03.173Z,4.93
2024-05-09T19:30:38.431Z,4.00
2024-05-09T19:33:10.561Z,5.15
2024-05-09T19:35:38.843Z,5.03
2024-05-09T19:38:06.276Z,6.25
2024-05-09T19:40:34.692Z,7.53
2024-05-09T19:43:03.374Z,5.10
2024-05-09T19:45:32.724Z,5.80
2024-05-09T19:48:03.670Z,4.25
2024-05-09T19:50:37.581Z,4.13
2024-05-09T19:53:10.576Z,4.18
2024-05-09T19:55:38.179Z,4.53
2024-05-09T19:58:07.264Z,6.03
2024-05-09T20:00:43.382Z,5.55
2024-05-09T20:03:12.958Z,6.90
2024-05-09T20:05:42.643Z,6.72
2024-05-09T20:08:13.038Z,4.07
2024-05-09T20:10:40.176Z,5.22
2024-05-09T20:13:08.346Z,4.97
2024-05-09T20:15:37.020Z,5.05
2024-05-09T20:18:05.342Z,4.63
2024-05-09T20:20:38.549Z,3.60
2024-05-09T20:23:09.877Z,3.90
2024-05-09T20:25:37.348Z,5.55
2024-05-09T20:28:06.102Z,5.45
2024-05-09T20:30:34.784Z,5.68
2024-05-09T20:33:04.832Z,4.82
2024-05-09T20:35:33.353Z,4.97
2024-05-09T20:38:01.933Z,4.30
2024-05-09T20:40:34.133Z,4.70
2024-05-09T20:43:05.700Z,6.65
2024-05-09T20:45:33.498Z,4.03
2024-05-09T20:48:01.222Z,4.35
2024-05-09T20:50:36.636Z,4.60
2024-05-09T20:53:14.297Z,5.43
2024-05-09T20:55:43.205Z,6.40
2024-05-09T20:58:11.163Z,3.67
2024-05-09T21:00:42.101Z,4.07
2024-05-09T21:03:13.223Z,5.30
2024-05-09T21:05:41.423Z,5.07
2024-05-09T21:08:09.022Z,5.43
2024-05-09T21:10:37.092Z,5.43
2024-05-09T21:13:06.103Z,5.43
2024-05-09T21:15:34.245Z,3.47
2024-05-09T21:18:01.560Z,4.22
2024-05-09T21:20:31.587Z,4.47
2024-05-09T21:23:01.302Z,5.10
2024-05-09T21:25:28.804Z,9.18
2024-05-09T21:27:55.923Z,6.60
2024-05-09T21:30:32.472Z,5.80
2024-05-09T21:33:13.631Z,6.38
2024-05-09T21:35:42.999Z,3.83
2024-05-09T21:38:10.791Z,4.22
2024-05-09T21:40:38.535Z,7.82
2024-05-09T21:43:07.934Z,7.60
2024-05-09T21:45:36.705Z,4.90
2024-05-09T21:48:05.098Z,7.55
2024-05-09T21:50:39.313Z,4.38
2024-05-09T21:53:08.972Z,4.35
2024-05-09T21:55:36.115Z,4.03
2024-05-09T21:58:03.633Z,4.85
2024-05-09T22:00:36.626Z,7.63
2024-05-09T22:03:07.960Z,6.82
2024-05-09T22:05:36.059Z,3.47
2024-05-09T22:08:03.787Z,7.43
2024-05-09T22:10:34.802Z,4.93
2024-05-09T22:13:05.189Z,4.90
2024-05-09T22:15:35.722Z,6.43
2024-05-09T22:18:03.954Z,4.30
2024-05-09T22:20:37.075Z,4.00
2024-05-09T22:23:06.835Z,4.18
2024-05-09T22:25:34.192Z,4.03
2024-05-09T22:28:02.543Z,5.18
2024-05-09T22:33:00.132Z,5.38
2024-05-09T22:35:27.398Z,3.78
2024-05-09T22:37:55.262Z,4.88
2024-05-09T22:40:32.130Z,5.20
2024-05-09T22:43:06.128Z,5.03
2024-05-09T22:45:33.379Z,5.00
2024-05-09T22:48:00.602Z,6.22
2024-05-09T22:50:32.874Z,4.38
2024-05-09T22:53:01.210Z,4.72
2024-05-09T22:55:28.749Z,4.38
2024-05-09T22:57:56.195Z,4.70
2024-05-09T23:00:31.342Z,4.80
2024-05-09T23:03:03.422Z,4.88
2024-05-09T23:05:32.316Z,5.22
2024-05-09T23:08:01.788Z,8.15
2024-05-09T23:10:35.573Z,5.18
2024-05-09T23:13:05.878Z,7.60
2024-05-09T23:15:33.289Z,9.13
2024-05-09T23:18:00.491Z,10.63
2024-05-09T23:20:35.373Z,7.30
2024-05-09T23:23:06.688Z,7.43
2024-05-09T23:25:34.263Z,9.00
2024-05-09T23:28:01.402Z,7.25
2024-05-09T23:30:36.235Z,6.45
2024-05-09T23:33:06.723Z,4.78
2024-05-09T23:35:33.897Z,4.20
2024-05-09T23:38:00.919Z,4.13
2024-05-09T23:40:37.498Z,5.93
2024-05-09T23:43:08.454Z,4.97
2024-05-09T23:45:36.136Z,4.13
2024-05-09T23:48:03.801Z,5.30
2024-05-09T23:50:35.563Z,4.45
2024-05-09T23:53:06.184Z,4.32
2024-05-09T23:55:34.156Z,4.70
2024-05-09T23:58:01.248Z,7.22
